Terminal Aerodrome Forecast
Issued by NWS

Home | Current Version | Previous Version | Graphics & Text | Print | Product List | Glossary On
Versions: 1 2 3 4 5 6 7 8 9 10 11 12 13 14 15 16 17 18
000
FTUS43 KOAX 161140
TAFCDR
TAF
KCDR 161140Z 1612/1712 02008KT P6SM VCSH FEW018 OVC030
     FM161600 01012KT P6SM -RA OVC030
     FM170000 02012KT P6SM VCSH SCT020 BKN035=

USA.gov is the U.S. government's official web portal to all federal, state and local government web resources and services.